General Aviation Weather

Text Reports

Enter one or more of the following location identifiers separated by a space:

Zip Code, Four-Character ICAO or Three-Character IATA airport codes.

METAR - Aviation Routine Weather Report
KBAX - Bad Axe, Michigan
Updated at 12:35 PM GMT on August 21, 2014 (8:35 AM EDT):
METAR KBAX 211235Z AUTO 00000KT 7SM OVC006 18/18 A3000 RMK AO2 T01800180
TAF - Terminal Area Forecast
KBAX - Bad Axe, Michigan
Updated at 12:35 PM GMT on August 21, 2014 (8:35 AM EDT):
No TAF is currently available for this location.
Decoded:
No decoded TAF is available.
PIREP - Pilot Weather Report
KBAX - Bad Axe, Michigan
Updated at 12:35 PM GMT on August 21, 2014 (8:35 AM EDT):
No PIREP is currently available for this location.
AIRMET - Airmens Meteorological Information
KBAX - Bad Axe, Michigan
Updated at 12:35 PM GMT on August 21, 2014 (8:35 AM EDT):
No AIRMET is currently available for this location.
SIGMET - Significant Meteorological Information
KBAX - Bad Axe, Michigan
Updated at 12:35 PM GMT on August 21, 2014 (8:35 AM EDT):
No SIGMET is currently available for this location.
NOTAM - Notice to Airmen
KBAX - Bad Axe, Michigan
Updated at 12:35 PM GMT on August 21, 2014 (8:35 AM EDT):
No NOTAM is currently available for this location.
Forecast Area
KBAX - Bad Axe, Michigan
Updated at 12:35 PM GMT on August 21, 2014 (8:35 AM EDT):
No NOTAM is currently available for this location.
Aviation Weather Maps